createdAt,value
2023-04-22T00:00:15.714Z,12.20
2023-04-22T00:02:42.375Z,12.37
2023-04-22T00:05:10.060Z,12.24
2023-04-22T00:07:36.601Z,12.08
2023-04-22T00:10:03.701Z,12.04
2023-04-22T00:12:30.241Z,11.92
2023-04-22T00:14:57.838Z,11.94
2023-04-22T00:17:24.920Z,11.92
2023-04-22T00:19:51.466Z,11.72
2023-04-22T00:22:17.936Z,11.66
2023-04-22T00:24:44.466Z,11.61
2023-04-22T00:27:11.481Z,11.57
2023-04-22T00:29:41.707Z,11.48
2023-04-22T00:32:08.068Z,11.52
2023-04-22T00:34:34.536Z,11.46
2023-04-22T00:37:01.153Z,11.45
2023-04-22T00:39:29.778Z,11.41
2023-04-22T00:41:56.255Z,11.28
2023-04-22T00:44:22.830Z,11.24
2023-04-22T00:46:51.728Z,11.28
2023-04-22T00:49:18.288Z,11.33
2023-04-22T00:51:44.971Z,11.18
2023-04-22T00:54:12.589Z,11.28
2023-04-22T00:56:39.368Z,11.27
2023-04-22T00:59:06.135Z,11.33
2023-04-22T01:01:32.763Z,11.42
2023-04-22T01:04:00.906Z,10.95
2023-04-22T01:06:29.154Z,11.19
2023-04-22T01:08:56.287Z,11.02
2023-04-22T01:11:23.412Z,11.00
2023-04-22T01:13:50.081Z,10.84
2023-04-22T01:16:16.665Z,10.88
2023-04-22T01:18:43.394Z,10.28
2023-04-22T01:21:09.869Z,10.18
2023-04-22T01:23:36.363Z,10.16
2023-04-22T01:26:02.846Z,10.07
2023-04-22T01:28:31.446Z,10.34
2023-04-22T01:30:58.141Z,10.51
2023-04-22T01:33:24.627Z,10.61
2023-04-22T01:35:51.398Z,10.68
2023-04-22T01:38:18.206Z,10.87
2023-04-22T01:40:44.878Z,10.85
2023-04-22T01:43:11.389Z,10.88
2023-04-22T01:45:38.170Z,10.99
2023-04-22T01:48:06.754Z,10.73
2023-04-22T01:50:34.809Z,10.74
2023-04-22T01:53:01.303Z,10.61
2023-04-22T01:55:28.181Z,10.50
2023-04-22T01:57:54.677Z,10.14
2023-04-22T02:00:21.387Z,10.07
2023-04-22T02:02:48.099Z,10.05
2023-04-22T02:05:15.012Z,10.02
2023-04-22T02:07:41.541Z,9.98
2023-04-22T02:10:09.413Z,10.12
2023-04-22T02:12:36.087Z,10.05
2023-04-22T02:15:02.788Z,10.05
2023-04-22T02:17:29.261Z,10.02
2023-04-22T02:19:55.851Z,10.07
2023-04-22T02:22:22.928Z,9.85
2023-04-22T02:24:49.534Z,9.54
2023-04-22T02:27:16.019Z,9.50
2023-04-22T02:29:43.762Z,9.82
2023-04-22T02:32:10.344Z,9.67
2023-04-22T02:34:36.803Z,9.59
2023-04-22T02:37:03.288Z,9.41
2023-04-22T02:39:29.748Z,9.20
2023-04-22T02:41:56.236Z,9.30
2023-04-22T02:44:22.705Z,9.27
2023-04-22T02:46:49.534Z,9.34
2023-04-22T02:49:16.043Z,9.38
2023-04-22T02:51:42.525Z,9.43
2023-04-22T02:54:09.072Z,9.39
2023-04-22T02:56:36.198Z,9.57
2023-04-22T02:59:03.939Z,9.61
2023-04-22T03:01:30.970Z,9.69
2023-04-22T03:03:58.132Z,9.67
2023-04-22T03:06:24.862Z,9.61
2023-04-22T03:08:51.328Z,9.55
2023-04-22T03:11:17.838Z,9.49
2023-04-22T03:13:44.603Z,9.43
2023-04-22T03:16:11.492Z,9.44
2023-04-22T03:18:37.995Z,9.36
2023-04-22T03:21:04.456Z,9.38
2023-04-22T03:23:33.472Z,9.32
2023-04-22T03:26:00.313Z,9.36
2023-04-22T03:28:26.815Z,9.24
2023-04-22T03:30:53.289Z,9.17
2023-04-22T03:33:20.151Z,9.18
2023-04-22T03:35:51.267Z,9.17
2023-04-22T03:38:17.805Z,9.26
2023-04-22T03:40:44.289Z,9.28
2023-04-22T03:43:10.790Z,9.31
2023-04-22T03:45:37.298Z,9.43
2023-04-22T03:48:03.932Z,9.62
2023-04-22T03:50:30.614Z,9.69
2023-04-22T03:52:57.302Z,9.79
2023-04-22T03:55:23.777Z,9.80
2023-04-22T03:57:50.285Z,9.79
2023-04-22T04:00:16.859Z,9.90
2023-04-22T04:02:43.623Z,10.14
2023-04-22T04:05:11.322Z,10.56
2023-04-22T04:07:37.960Z,10.58
2023-04-22T04:10:07.204Z,10.63
2023-04-22T04:12:33.679Z,10.70
2023-04-22T04:15:00.219Z,10.79
2023-04-22T04:17:28.921Z,10.87
2023-04-22T04:19:55.724Z,11.20
2023-04-22T04:22:22.503Z,11.37
2023-04-22T04:24:49.803Z,11.41
2023-04-22T04:27:16.307Z,11.39
2023-04-22T04:29:42.935Z,11.56
2023-04-22T04:32:10.167Z,11.67
2023-04-22T04:34:37.966Z,11.81
2023-04-22T04:37:04.519Z,11.79
2023-04-22T04:39:31.026Z,11.82
2023-04-22T04:41:59.586Z,11.87
2023-04-22T04:44:33.877Z,11.96
2023-04-22T04:47:00.374Z,12.09
2023-04-22T04:49:26.930Z,12.17
2023-04-22T04:51:54.833Z,12.23
2023-04-22T04:54:21.296Z,12.17
2023-04-22T04:56:49.103Z,12.15
2023-04-22T04:59:15.858Z,12.09
2023-04-22T05:01:42.405Z,12.14
2023-04-22T05:04:10.582Z,12.13
2023-04-22T05:06:39.840Z,12.11
2023-04-22T05:09:08.393Z,12.04
2023-04-22T05:11:35.092Z,12.00
2023-04-22T05:14:03.229Z,11.95
2023-04-22T05:16:31.030Z,11.95
2023-04-22T05:18:57.535Z,12.04
2023-04-22T05:21:24.288Z,12.15
2023-04-22T05:23:50.781Z,12.20
2023-04-22T05:26:17.263Z,12.30
2023-04-22T05:28:44.260Z,12.31
2023-04-22T05:31:10.730Z,12.33
2023-04-22T05:33:37.193Z,12.43
2023-04-22T05:36:04.778Z,12.48
2023-04-22T05:38:31.262Z,12.62
2023-04-22T05:40:57.950Z,12.65
2023-04-22T05:43:24.456Z,12.70
2023-04-22T05:45:51.053Z,12.67
2023-04-22T05:48:17.616Z,12.70
2023-04-22T05:50:45.438Z,12.75
2023-04-22T05:53:12.296Z,12.81
2023-04-22T05:55:38.795Z,12.86
2023-04-22T05:58:05.292Z,12.88
2023-04-22T06:00:31.756Z,12.95
2023-04-22T06:03:00.075Z,13.04
2023-04-22T06:05:27.283Z,13.11
2023-04-22T06:07:53.828Z,13.15
2023-04-22T06:10:20.312Z,13.18
2023-04-22T06:12:46.792Z,13.31
2023-04-22T06:15:13.274Z,13.37
2023-04-22T06:17:39.789Z,13.45
2023-04-22T06:20:07.164Z,13.50
2023-04-22T06:22:33.654Z,13.48
2023-04-22T06:25:00.154Z,13.52
2023-04-22T06:27:26.843Z,13.60
2023-04-22T06:29:53.314Z,13.71
2023-04-22T06:32:19.790Z,13.72
2023-04-22T06:34:48.590Z,13.69
2023-04-22T06:37:15.077Z,13.74
2023-04-22T06:39:41.878Z,13.84
2023-04-22T06:42:08.786Z,13.96
2023-04-22T06:44:35.267Z,14.19
2023-04-22T06:47:01.815Z,14.46
2023-04-22T06:49:28.421Z,14.45
2023-04-22T06:51:54.881Z,14.68
2023-04-22T06:54:21.463Z,14.71
2023-04-22T06:56:48.293Z,14.88
2023-04-22T06:59:14.766Z,15.08
2023-04-22T07:01:41.342Z,15.10
2023-04-22T07:04:07.888Z,15.17
2023-04-22T07:06:35.564Z,15.36
2023-04-22T07:09:02.056Z,15.39
2023-04-22T07:11:28.833Z,15.17
2023-04-22T07:13:55.317Z,15.40
2023-04-22T07:16:21.809Z,15.52
2023-04-22T07:18:48.309Z,15.65
2023-04-22T07:21:14.819Z,15.37
2023-04-22T07:23:41.286Z,15.58
2023-04-22T07:26:07.808Z,15.68
2023-04-22T07:28:34.540Z,15.94
2023-04-22T07:31:03.222Z,16.16
2023-04-22T07:33:31.261Z,16.03
2023-04-22T07:35:57.729Z,15.99
2023-04-22T07:38:24.613Z,16.01
2023-04-22T07:40:52.919Z,16.08
2023-04-22T07:43:19.923Z,16.23
2023-04-22T07:45:46.399Z,16.32
2023-04-22T07:48:13.241Z,16.32
2023-04-22T07:50:39.769Z,16.37
2023-04-22T07:53:06.314Z,16.59
2023-04-22T07:55:33.811Z,16.62
2023-04-22T07:58:01.079Z,16.95
2023-04-22T08:00:27.645Z,17.20
2023-04-22T08:02:54.699Z,17.45
2023-04-22T08:05:21.286Z,17.71
2023-04-22T08:07:47.775Z,17.89
2023-04-22T08:10:14.264Z,18.07
2023-04-22T08:12:40.898Z,17.95
2023-04-22T08:15:07.662Z,18.10
2023-04-22T08:17:35.493Z,18.25
2023-04-22T08:20:02.075Z,18.24
2023-04-22T08:22:28.599Z,18.60
2023-04-22T08:24:55.478Z,18.60
2023-04-22T08:27:22.205Z,18.88
2023-04-22T08:29:48.671Z,18.70
2023-04-22T08:32:15.485Z,18.67
2023-04-22T08:34:41.942Z,17.98
2023-04-22T08:37:08.599Z,18.36
2023-04-22T08:39:35.069Z,18.15
2023-04-22T08:42:02.230Z,18.07
2023-04-22T08:44:28.810Z,18.11
2023-04-22T08:46:55.980Z,18.43
2023-04-22T08:49:26.428Z,18.58
2023-04-22T08:51:53.095Z,18.39
2023-04-22T08:54:19.653Z,18.41
2023-04-22T08:56:46.196Z,18.71
2023-04-22T08:59:13.096Z,18.47
2023-04-22T09:01:42.526Z,18.69
2023-04-22T09:04:11.260Z,19.03
2023-04-22T09:06:38.089Z,19.14
2023-04-22T09:09:04.563Z,19.13
2023-04-22T09:11:31.254Z,19.63
2023-04-22T09:13:57.797Z,20.00
2023-04-22T09:16:24.383Z,20.03
2023-04-22T09:18:51.288Z,19.99
2023-04-22T09:21:17.800Z,20.03
2023-04-22T09:23:49.322Z,19.89
2023-04-22T09:26:20.713Z,19.89
2023-04-22T09:28:51.417Z,20.15
2023-04-22T09:31:18.008Z,20.52
2023-04-22T09:33:58.126Z,20.74
2023-04-22T09:36:28.157Z,20.85
2023-04-22T09:38:55.710Z,20.83
2023-04-22T09:41:29.654Z,21.05
2023-04-22T09:43:58.024Z,21.25
2023-04-22T09:46:25.646Z,21.29
2023-04-22T09:48:53.590Z,21.00
2023-04-22T09:51:20.310Z,21.27
2023-04-22T09:53:57.898Z,20.92
2023-04-22T09:56:42.218Z,20.66
2023-04-22T09:59:09.005Z,21.13
2023-04-22T10:01:37.380Z,20.52
2023-04-22T10:04:12.480Z,20.64
2023-04-22T10:06:39.259Z,20.47
2023-04-22T10:09:08.240Z,20.59
2023-04-22T10:11:35.925Z,21.04
2023-04-22T10:14:02.900Z,21.57
2023-04-22T10:16:34.287Z,21.63
2023-04-22T10:19:04.962Z,21.92
2023-04-22T10:21:31.649Z,21.88
2023-04-22T10:24:00.804Z,21.84
2023-04-22T10:26:49.092Z,21.66
2023-04-22T10:29:19.345Z,21.43
2023-04-22T10:31:53.807Z,21.52
2023-04-22T10:34:20.266Z,21.72
2023-04-22T10:37:00.840Z,21.84
2023-04-22T10:39:29.825Z,22.31
2023-04-22T10:42:06.362Z,22.33
2023-04-22T10:45:00.206Z,22.24
2023-04-22T10:47:30.170Z,22.10
2023-04-22T10:50:12.953Z,21.65
2023-04-22T10:52:41.508Z,21.49
2023-04-22T10:55:09.241Z,21.85
2023-04-22T10:57:41.430Z,21.94
2023-04-22T11:00:41.847Z,21.88
2023-04-22T11:03:17.020Z,21.46
2023-04-22T11:05:43.775Z,21.70
2023-04-22T11:08:26.154Z,21.67
2023-04-22T11:10:53.719Z,21.97
2023-04-22T11:13:22.576Z,21.59
2023-04-22T11:15:50.772Z,21.52
2023-04-22T11:18:21.946Z,21.65
2023-04-22T11:20:49.339Z,21.57
2023-04-22T11:23:26.502Z,21.65
2023-04-22T11:25:59.934Z,21.13
2023-04-22T11:28:26.772Z,21.37
2023-04-22T11:30:53.714Z,21.51
2023-04-22T11:33:20.393Z,21.51
2023-04-22T11:35:49.637Z,21.62
2023-04-22T11:38:17.435Z,21.57
2023-04-22T11:40:46.613Z,21.32
2023-04-22T11:43:13.946Z,21.60
2023-04-22T11:45:40.693Z,21.75
2023-04-22T11:48:08.817Z,22.01
2023-04-22T11:50:44.676Z,22.21
2023-04-22T11:53:21.099Z,22.22
2023-04-22T11:55:50.889Z,22.60
2023-04-22T11:58:24.131Z,22.85
2023-04-22T12:00:51.514Z,22.91
2023-04-22T12:03:24.827Z,23.11
2023-04-22T12:05:58.509Z,23.23
2023-04-22T12:08:36.533Z,23.52
2023-04-22T12:11:07.170Z,22.99
2023-04-22T12:13:36.457Z,22.99
2023-04-22T12:16:09.783Z,22.93
2023-04-22T12:18:40.531Z,23.14
2023-04-22T12:21:06.864Z,22.76
2023-04-22T12:23:43.490Z,22.50
2023-04-22T12:26:10.235Z,22.28
2023-04-22T12:28:40.097Z,22.26
2023-04-22T12:31:06.713Z,22.57
2023-04-22T12:33:34.369Z,23.02
2023-04-22T12:36:01.004Z,23.14
2023-04-22T12:38:27.489Z,22.68
2023-04-22T12:40:55.499Z,23.30
2023-04-22T12:43:22.504Z,23.64
2023-04-22T12:45:51.984Z,22.86
2023-04-22T12:48:18.791Z,22.84
2023-04-22T12:50:46.336Z,22.92
2023-04-22T12:53:12.829Z,23.39
2023-04-22T12:55:44.586Z,23.64
2023-04-22T12:58:12.405Z,23.89
2023-04-22T13:00:39.356Z,24.00
2023-04-22T13:03:07.413Z,23.98
2023-04-22T13:05:34.445Z,23.57
2023-04-22T13:08:07.195Z,23.42
2023-04-22T13:10:34.626Z,23.86
2023-04-22T13:13:16.701Z,23.87
2023-04-22T13:15:44.258Z,23.33
2023-04-22T13:18:11.397Z,23.46
2023-04-22T13:20:40.004Z,22.88
2023-04-22T13:23:09.934Z,22.88
2023-04-22T13:25:37.254Z,22.24
2023-04-22T13:28:05.029Z,22.11
2023-04-22T13:30:31.839Z,22.00
2023-04-22T13:32:58.347Z,22.13
2023-04-22T13:35:25.233Z,22.52
2023-04-22T13:37:51.705Z,22.83
2023-04-22T13:40:19.910Z,23.08
2023-04-22T13:42:46.714Z,23.13
2023-04-22T13:45:13.262Z,23.49
2023-04-22T13:47:39.837Z,23.80
2023-04-22T13:50:09.418Z,24.17
2023-04-22T13:52:37.990Z,23.99
2023-04-22T13:55:05.404Z,24.00
2023-04-22T13:57:32.013Z,24.42
2023-04-22T14:00:00.566Z,24.26
2023-04-22T14:02:27.255Z,24.09
2023-04-22T14:04:53.872Z,23.77
2023-04-22T14:07:20.340Z,23.87
2023-04-22T14:09:47.037Z,23.79
2023-04-22T14:12:13.599Z,22.69
2023-04-22T14:14:40.432Z,22.31
2023-04-22T14:17:08.160Z,22.40
2023-04-22T14:19:37.437Z,22.01
2023-04-22T14:22:03.982Z,21.75
2023-04-22T14:24:32.483Z,21.73
2023-04-22T14:26:59.350Z,21.86
2023-04-22T14:29:27.145Z,22.07
2023-04-22T14:31:54.823Z,22.04
2023-04-22T14:34:21.954Z,22.52
2023-04-22T14:36:48.497Z,22.65
2023-04-22T14:39:17.945Z,22.45
2023-04-22T14:41:46.487Z,22.36
2023-04-22T14:44:13.870Z,22.34
2023-04-22T14:46:41.128Z,22.50
2023-04-22T14:49:09.123Z,22.50
2023-04-22T14:51:39.657Z,22.31
2023-04-22T14:54:06.603Z,22.07
2023-04-22T14:56:34.508Z,22.24
2023-04-22T14:59:01.065Z,22.38
2023-04-22T15:01:27.616Z,22.34
2023-04-22T15:03:56.029Z,22.46
2023-04-22T15:06:24.806Z,22.00
2023-04-22T15:08:55.338Z,22.09
2023-04-22T15:11:21.835Z,21.99
2023-04-22T15:13:50.650Z,21.94
2023-04-22T15:16:17.541Z,21.78
2023-04-22T15:18:49.349Z,21.80
2023-04-22T15:21:16.314Z,21.88
2023-04-22T15:23:44.324Z,21.70
2023-04-22T15:26:10.900Z,21.71
2023-04-22T15:28:39.310Z,21.64
2023-04-22T15:31:08.018Z,21.64
2023-04-22T15:33:36.271Z,21.71
2023-04-22T15:36:04.077Z,21.32
2023-04-22T15:38:34.526Z,21.39
2023-04-22T15:41:04.475Z,22.02
2023-04-22T15:43:32.952Z,21.94
2023-04-22T15:46:02.175Z,21.70
2023-04-22T15:48:32.899Z,21.62
2023-04-22T15:51:01.092Z,21.50
2023-04-22T15:53:28.136Z,21.71
2023-04-22T15:55:58.057Z,21.71
2023-04-22T15:58:24.867Z,21.56
2023-04-22T16:00:54.269Z,21.39
2023-04-22T16:03:23.553Z,21.23
2023-04-22T16:05:51.299Z,21.05
2023-04-22T16:08:19.120Z,21.07
2023-04-22T16:10:45.602Z,20.99
2023-04-22T16:13:13.034Z,20.80
2023-04-22T16:15:40.566Z,20.76
2023-04-22T16:18:07.070Z,20.63
2023-04-22T16:20:36.062Z,20.52
2023-04-22T16:23:02.531Z,20.59
2023-04-22T16:25:29.845Z,20.58
2023-04-22T16:27:57.648Z,20.63
2023-04-22T16:30:24.113Z,20.62
2023-04-22T16:32:51.936Z,20.72
2023-04-22T16:35:18.477Z,20.72
2023-04-22T16:37:46.509Z,20.63
2023-04-22T16:40:13.045Z,20.69
2023-04-22T16:42:40.189Z,20.65
2023-04-22T16:45:08.470Z,20.61
2023-04-22T16:47:35.058Z,20.47
2023-04-22T16:50:08.707Z,20.32
2023-04-22T16:52:35.191Z,20.26
2023-04-22T16:55:05.745Z,20.00
2023-04-22T16:57:32.770Z,20.00
2023-04-22T16:59:59.255Z,19.92
2023-04-22T17:02:25.958Z,19.84
2023-04-22T17:04:53.978Z,19.75
2023-04-22T17:07:20.504Z,19.66
2023-04-22T17:09:49.268Z,19.74
2023-04-22T17:12:16.059Z,19.63
2023-04-22T17:14:42.835Z,19.53
2023-04-22T17:17:09.317Z,19.41
2023-04-22T17:19:36.405Z,19.40
2023-04-22T17:22:02.952Z,19.34
2023-04-22T17:24:30.432Z,19.16
2023-04-22T17:26:56.902Z,18.96
2023-04-22T17:29:23.546Z,18.99
2023-04-22T17:31:50.486Z,18.86
2023-04-22T17:34:18.193Z,18.81
2023-04-22T17:36:44.785Z,18.75
2023-04-22T17:39:11.804Z,18.69
2023-04-22T17:41:38.952Z,18.53
2023-04-22T17:44:08.821Z,18.66
2023-04-22T17:46:35.319Z,18.63
2023-04-22T17:49:02.104Z,18.52
2023-04-22T17:51:28.575Z,18.47
2023-04-22T17:53:57.097Z,18.38
2023-04-22T17:56:24.079Z,18.35
2023-04-22T17:58:50.888Z,18.29
2023-04-22T18:01:17.442Z,18.20
2023-04-22T18:03:44.279Z,18.20
2023-04-22T18:06:12.213Z,18.09
2023-04-22T18:08:40.086Z,18.10
2023-04-22T18:11:06.938Z,17.90
2023-04-22T18:13:33.411Z,17.97
2023-04-22T18:16:00.996Z,17.98
2023-04-22T18:18:42.128Z,17.91
2023-04-22T18:21:11.121Z,17.92
2023-04-22T18:23:38.472Z,17.94
2023-04-22T18:26:11.171Z,17.85
2023-04-22T18:28:40.021Z,17.76
2023-04-22T18:31:08.926Z,17.72
2023-04-22T18:33:37.286Z,17.58
2023-04-22T18:36:04.269Z,17.67
2023-04-22T18:38:33.425Z,17.50
2023-04-22T18:41:00.351Z,17.58
2023-04-22T18:43:32.160Z,17.53
2023-04-22T18:45:58.694Z,17.53
2023-04-22T18:48:27.773Z,17.51
2023-04-22T18:50:54.663Z,17.33
2023-04-22T18:53:21.134Z,17.17
2023-04-22T18:55:47.611Z,17.07
2023-04-22T18:58:15.096Z,16.88
2023-04-22T19:00:41.837Z,16.88
2023-04-22T19:03:11.209Z,16.80
2023-04-22T19:05:38.821Z,16.54
2023-04-22T19:08:07.253Z,16.55
2023-04-22T19:10:33.835Z,16.58
2023-04-22T19:13:00.352Z,16.36
2023-04-22T19:15:27.952Z,16.26
2023-04-22T19:17:55.884Z,16.08
2023-04-22T19:20:22.898Z,15.93
2023-04-22T19:22:49.618Z,15.91
2023-04-22T19:25:16.107Z,16.02
2023-04-22T19:27:43.132Z,15.90
2023-04-22T19:30:11.247Z,15.84
2023-04-22T19:32:38.286Z,15.81
2023-04-22T19:35:07.451Z,15.89
2023-04-22T19:37:34.080Z,15.87
2023-04-22T19:40:00.577Z,15.92
2023-04-22T19:42:31.871Z,16.05
2023-04-22T19:44:59.461Z,16.15
2023-04-22T19:47:26.676Z,16.27
2023-04-22T19:49:53.361Z,16.30
2023-04-22T19:52:20.934Z,16.36
2023-04-22T19:54:48.897Z,16.17
2023-04-22T19:57:16.594Z,15.86
2023-04-22T19:59:43.250Z,15.85
2023-04-22T20:02:13.897Z,15.76
2023-04-22T20:04:41.240Z,15.71
2023-04-22T20:07:07.792Z,15.70
2023-04-22T20:09:35.334Z,15.32
2023-04-22T20:12:04.334Z,15.37
2023-04-22T20:14:32.741Z,15.16
2023-04-22T20:16:59.480Z,15.14
2023-04-22T20:22:15.766Z,15.20
2023-04-22T20:24:42.400Z,15.25
2023-04-22T20:27:13.218Z,15.26
2023-04-22T20:29:41.063Z,15.28
2023-04-22T20:32:09.439Z,15.44
2023-04-22T20:34:39.824Z,15.58
2023-04-22T20:37:10.681Z,15.88
2023-04-22T20:39:40.095Z,15.83
2023-04-22T20:42:07.264Z,15.87
2023-04-22T20:44:33.755Z,15.84
2023-04-22T20:47:01.125Z,15.74
2023-04-22T20:49:28.022Z,15.67
2023-04-22T20:51:56.878Z,15.55
2023-04-22T20:54:43.486Z,15.54
2023-04-22T20:57:10.816Z,15.48
2023-04-22T20:59:37.330Z,15.22
2023-04-22T21:02:07.198Z,15.07
2023-04-22T21:04:34.351Z,14.99
2023-04-22T21:07:03.952Z,14.94
2023-04-22T21:09:30.511Z,14.91
2023-04-22T21:11:58.061Z,14.90
2023-04-22T21:14:29.297Z,14.76
2023-04-22T21:17:03.222Z,14.60
2023-04-22T21:19:34.566Z,14.43
2023-04-22T21:22:06.114Z,14.48
2023-04-22T21:24:38.047Z,14.41
2023-04-22T21:27:05.607Z,14.43
2023-04-22T21:29:32.820Z,14.24
2023-04-22T21:32:08.651Z,14.32
2023-04-22T21:34:35.794Z,14.23
2023-04-22T21:37:02.473Z,14.23
2023-04-22T21:39:30.672Z,14.22
2023-04-22T21:41:58.238Z,14.35
2023-04-22T21:44:25.009Z,14.28
2023-04-22T21:46:51.807Z,14.38
2023-04-22T21:49:22.476Z,14.20
2023-04-22T21:51:50.068Z,14.00
2023-04-22T21:54:18.648Z,14.19
2023-04-22T21:56:47.832Z,14.12
2023-04-22T21:59:14.413Z,14.09
2023-04-22T22:01:41.132Z,14.20
2023-04-22T22:04:07.895Z,14.22
2023-04-22T22:06:37.270Z,14.10
2023-04-22T22:09:05.996Z,14.24
2023-04-22T22:11:35.044Z,14.25
2023-04-22T22:14:01.513Z,14.13
2023-04-22T22:16:28.696Z,14.10
2023-04-22T22:18:57.928Z,14.09
2023-04-22T22:21:24.698Z,14.22
2023-04-22T22:23:54.438Z,14.24
2023-04-22T22:26:21.432Z,14.21
2023-04-22T22:28:50.770Z,14.28
2023-04-22T22:31:17.333Z,14.07
2023-04-22T22:33:44.883Z,14.06
2023-04-22T22:36:12.510Z,14.07
2023-04-22T22:38:40.131Z,14.09
2023-04-22T22:41:09.019Z,14.17
2023-04-22T22:43:37.193Z,14.10
2023-04-22T22:46:04.743Z,14.09
2023-04-22T22:48:35.972Z,14.06
2023-04-22T22:51:03.016Z,14.15
2023-04-22T22:53:29.513Z,14.15
2023-04-22T22:55:56.318Z,14.02
2023-04-22T22:58:26.134Z,14.09
2023-04-22T23:00:52.955Z,14.06
2023-04-22T23:03:20.280Z,13.96
2023-04-22T23:05:48.022Z,13.96
2023-04-22T23:08:14.763Z,13.94
2023-04-22T23:10:41.262Z,14.00
2023-04-22T23:13:08.871Z,13.96
2023-04-22T23:15:35.636Z,13.90
2023-04-22T23:18:03.030Z,13.91
2023-04-22T23:20:30.828Z,13.92
2023-04-22T23:22:57.329Z,13.90
2023-04-22T23:25:24.350Z,13.83
2023-04-22T23:27:53.647Z,13.75
2023-04-22T23:30:24.781Z,13.72
2023-04-22T23:32:51.708Z,13.78
2023-04-22T23:35:19.698Z,13.78
2023-04-22T23:37:46.382Z,13.76
2023-04-22T23:40:15.507Z,13.48
2023-04-22T23:42:43.098Z,13.49
2023-04-22T23:45:11.285Z,13.55
2023-04-22T23:47:40.044Z,13.46
2023-04-22T23:50:07.872Z,13.43
2023-04-22T23:52:40.768Z,13.62
2023-04-22T23:55:12.287Z,13.61
2023-04-22T23:57:38.915Z,13.55
